sensor_id;sensor_type;location;lat;lon;timestamp;P1;durP1;ratioP1;P2;durP2;ratioP2
7719;SDS011;3902;49.474;8.616;2022-12-18T00:01:34;38.40;;;19.10;;
7719;SDS011;3902;49.474;8.616;2022-12-18T00:04:02;33.00;;;17.70;;
7719;SDS011;3902;49.474;8.616;2022-12-18T00:06:30;37.83;;;18.73;;
7719;SDS011;3902;49.474;8.616;2022-12-18T00:08:56;39.50;;;19.03;;
7719;SDS011;3902;49.474;8.616;2022-12-18T00:11:24;34.23;;;18.77;;
7719;SDS011;3902;49.474;8.616;2022-12-18T00:13:52;33.80;;;18.73;;
7719;SDS011;3902;49.474;8.616;2022-12-18T00:16:20;33.73;;;18.50;;
7719;SDS011;3902;49.474;8.616;2022-12-18T00:18:48;38.10;;;19.57;;
7719;SDS011;3902;49.474;8.616;2022-12-18T00:21:15;34.67;;;18.77;;
7719;SDS011;3902;49.474;8.616;2022-12-18T00:23:41;34.17;;;18.57;;
7719;SDS011;3902;49.474;8.616;2022-12-18T00:26:12;35.10;;;19.00;;
7719;SDS011;3902;49.474;8.616;2022-12-18T00:28:40;31.07;;;17.40;;
7719;SDS011;3902;49.474;8.616;2022-12-18T00:31:14;34.50;;;18.53;;
7719;SDS011;3902;49.474;8.616;2022-12-18T00:33:41;32.10;;;18.20;;
7719;SDS011;3902;49.474;8.616;2022-12-18T00:36:12;35.80;;;18.40;;
7719;SDS011;3902;49.474;8.616;2022-12-18T00:38:42;35.30;;;18.47;;
7719;SDS011;3902;49.474;8.616;2022-12-18T00:41:09;44.27;;;19.70;;
7719;SDS011;3902;49.474;8.616;2022-12-18T00:43:36;33.23;;;18.37;;
7719;SDS011;3902;49.474;8.616;2022-12-18T00:46:03;39.47;;;19.83;;
7719;SDS011;3902;49.474;8.616;2022-12-18T00:48:28;35.80;;;18.10;;
7719;SDS011;3902;49.474;8.616;2022-12-18T00:50:54;37.40;;;19.40;;
7719;SDS011;3902;49.474;8.616;2022-12-18T00:53:20;33.13;;;18.83;;
7719;SDS011;3902;49.474;8.616;2022-12-18T00:55:46;32.30;;;16.97;;
7719;SDS011;3902;49.474;8.616;2022-12-18T00:58:12;34.00;;;17.40;;
7719;SDS011;3902;49.474;8.616;2022-12-18T01:00:38;36.83;;;18.70;;
7719;SDS011;3902;49.474;8.616;2022-12-18T01:03:04;37.50;;;18.43;;
7719;SDS011;3902;49.474;8.616;2022-12-18T01:05:30;33.83;;;18.63;;
7719;SDS011;3902;49.474;8.616;2022-12-18T01:07:56;38.70;;;18.70;;
7719;SDS011;3902;49.474;8.616;2022-12-18T01:10:22;34.43;;;18.87;;
7719;SDS011;3902;49.474;8.616;2022-12-18T01:12:48;41.10;;;20.97;;
7719;SDS011;3902;49.474;8.616;2022-12-18T01:15:14;38.20;;;19.47;;
7719;SDS011;3902;49.474;8.616;2022-12-18T01:17:41;39.67;;;20.70;;
7719;SDS011;3902;49.474;8.616;2022-12-18T01:20:08;38.17;;;19.00;;
7719;SDS011;3902;49.474;8.616;2022-12-18T01:22:35;35.23;;;19.73;;
7719;SDS011;3902;49.474;8.616;2022-12-18T01:25:01;37.27;;;19.63;;
7719;SDS011;3902;49.474;8.616;2022-12-18T01:27:27;34.37;;;17.23;;
7719;SDS011;3902;49.474;8.616;2022-12-18T01:29:52;35.97;;;18.00;;
7719;SDS011;3902;49.474;8.616;2022-12-18T01:32:18;32.83;;;17.77;;
7719;SDS011;3902;49.474;8.616;2022-12-18T01:34:44;31.00;;;17.10;;
7719;SDS011;3902;49.474;8.616;2022-12-18T01:37:09;31.10;;;16.30;;
7719;SDS011;3902;49.474;8.616;2022-12-18T01:39:35;34.30;;;17.43;;
7719;SDS011;3902;49.474;8.616;2022-12-18T01:42:11;33.20;;;17.83;;
7719;SDS011;3902;49.474;8.616;2022-12-18T01:52:33;34.80;;;17.53;;
7719;SDS011;3902;49.474;8.616;2022-12-18T01:55:00;36.10;;;18.30;;
7719;SDS011;3902;49.474;8.616;2022-12-18T01:57:28;31.90;;;17.97;;
7719;SDS011;3902;49.474;8.616;2022-12-18T01:59:55;33.57;;;17.60;;
7719;SDS011;3902;49.474;8.616;2022-12-18T02:02:24;33.20;;;17.70;;
7719;SDS011;3902;49.474;8.616;2022-12-18T02:04:53;38.53;;;18.50;;
7719;SDS011;3902;49.474;8.616;2022-12-18T02:07:21;37.67;;;17.73;;
7719;SDS011;3902;49.474;8.616;2022-12-18T02:13:12;33.30;;;18.13;;
7719;SDS011;3902;49.474;8.616;2022-12-18T02:18:32;40.07;;;20.07;;
7719;SDS011;3902;49.474;8.616;2022-12-18T02:21:10;36.47;;;18.43;;
7719;SDS011;3902;49.474;8.616;2022-12-18T02:23:56;43.37;;;20.90;;
7719;SDS011;3902;49.474;8.616;2022-12-18T02:26:38;42.63;;;20.57;;
7719;SDS011;3902;49.474;8.616;2022-12-18T02:29:16;37.10;;;19.80;;
7719;SDS011;3902;49.474;8.616;2022-12-18T02:31:52;37.27;;;20.00;;
7719;SDS011;3902;49.474;8.616;2022-12-18T02:34:22;39.17;;;19.70;;
7719;SDS011;3902;49.474;8.616;2022-12-18T02:36:52;42.07;;;19.50;;
7719;SDS011;3902;49.474;8.616;2022-12-18T02:39:19;37.00;;;18.67;;
7719;SDS011;3902;49.474;8.616;2022-12-18T02:41:48;40.23;;;20.00;;
7719;SDS011;3902;49.474;8.616;2022-12-18T02:44:14;34.10;;;18.43;;
7719;SDS011;3902;49.474;8.616;2022-12-18T02:46:44;37.83;;;19.00;;
7719;SDS011;3902;49.474;8.616;2022-12-18T02:49:22;33.00;;;18.47;;
7719;SDS011;3902;49.474;8.616;2022-12-18T02:52:15;38.77;;;20.13;;
7719;SDS011;3902;49.474;8.616;2022-12-18T03:00:21;38.37;;;18.50;;
7719;SDS011;3902;49.474;8.616;2022-12-18T03:02:55;39.80;;;20.47;;
7719;SDS011;3902;49.474;8.616;2022-12-18T03:05:25;35.40;;;18.77;;
7719;SDS011;3902;49.474;8.616;2022-12-18T03:08:00;36.47;;;18.27;;
7719;SDS011;3902;49.474;8.616;2022-12-18T03:10:34;36.53;;;19.90;;
7719;SDS011;3902;49.474;8.616;2022-12-18T03:13:05;36.07;;;18.53;;
7719;SDS011;3902;49.474;8.616;2022-12-18T03:15:38;35.87;;;18.70;;
7719;SDS011;3902;49.474;8.616;2022-12-18T03:18:10;36.37;;;19.50;;
7719;SDS011;3902;49.474;8.616;2022-12-18T03:20:45;36.97;;;19.73;;
7719;SDS011;3902;49.474;8.616;2022-12-18T03:23:14;40.67;;;20.13;;
7719;SDS011;3902;49.474;8.616;2022-12-18T03:25:43;38.93;;;19.57;;
7719;SDS011;3902;49.474;8.616;2022-12-18T03:28:15;43.03;;;19.50;;
7719;SDS011;3902;49.474;8.616;2022-12-18T03:30:45;42.10;;;20.37;;
7719;SDS011;3902;49.474;8.616;2022-12-18T03:33:23;37.30;;;18.77;;
7719;SDS011;3902;49.474;8.616;2022-12-18T03:36:11;36.90;;;19.67;;
7719;SDS011;3902;49.474;8.616;2022-12-18T03:38:37;41.77;;;20.73;;
7719;SDS011;3902;49.474;8.616;2022-12-18T03:41:49;34.80;;;19.07;;
7719;SDS011;3902;49.474;8.616;2022-12-18T03:43:56;36.07;;;18.33;;
7719;SDS011;3902;49.474;8.616;2022-12-18T03:49:10;36.13;;;18.40;;
7719;SDS011;3902;49.474;8.616;2022-12-18T03:51:46;34.67;;;18.73;;
7719;SDS011;3902;49.474;8.616;2022-12-18T03:54:28;43.43;;;19.67;;
7719;SDS011;3902;49.474;8.616;2022-12-18T03:56:57;38.37;;;19.90;;
7719;SDS011;3902;49.474;8.616;2022-12-18T03:59:28;35.93;;;18.97;;
7719;SDS011;3902;49.474;8.616;2022-12-18T04:01:55;38.80;;;18.37;;
7719;SDS011;3902;49.474;8.616;2022-12-18T04:04:23;41.73;;;19.30;;
7719;SDS011;3902;49.474;8.616;2022-12-18T04:06:49;39.63;;;19.10;;
7719;SDS011;3902;49.474;8.616;2022-12-18T04:09:16;43.43;;;21.57;;
7719;SDS011;3902;49.474;8.616;2022-12-18T04:11:43;41.37;;;18.70;;
7719;SDS011;3902;49.474;8.616;2022-12-18T04:14:11;38.30;;;19.50;;
7719;SDS011;3902;49.474;8.616;2022-12-18T04:16:36;43.93;;;20.33;;
7719;SDS011;3902;49.474;8.616;2022-12-18T04:19:02;39.87;;;19.20;;
7719;SDS011;3902;49.474;8.616;2022-12-18T04:21:28;43.83;;;20.50;;
7719;SDS011;3902;49.474;8.616;2022-12-18T04:23:54;38.37;;;19.70;;
7719;SDS011;3902;49.474;8.616;2022-12-18T04:26:19;36.73;;;19.93;;
7719;SDS011;3902;49.474;8.616;2022-12-18T04:28:45;46.60;;;21.73;;
7719;SDS011;3902;49.474;8.616;2022-12-18T04:31:10;35.70;;;18.63;;
7719;SDS011;3902;49.474;8.616;2022-12-18T04:33:36;41.90;;;19.80;;
7719;SDS011;3902;49.474;8.616;2022-12-18T04:36:02;40.93;;;20.63;;
7719;SDS011;3902;49.474;8.616;2022-12-18T04:38:27;38.13;;;19.90;;
7719;SDS011;3902;49.474;8.616;2022-12-18T04:40:53;36.60;;;19.37;;
7719;SDS011;3902;49.474;8.616;2022-12-18T04:43:18;40.33;;;19.63;;
7719;SDS011;3902;49.474;8.616;2022-12-18T04:45:44;38.77;;;20.10;;
7719;SDS011;3902;49.474;8.616;2022-12-18T04:48:10;37.53;;;17.63;;
7719;SDS011;3902;49.474;8.616;2022-12-18T04:50:35;42.23;;;20.83;;
7719;SDS011;3902;49.474;8.616;2022-12-18T04:53:01;37.67;;;19.47;;
7719;SDS011;3902;49.474;8.616;2022-12-18T04:55:26;36.83;;;18.63;;
7719;SDS011;3902;49.474;8.616;2022-12-18T04:57:52;40.83;;;18.53;;
7719;SDS011;3902;49.474;8.616;2022-12-18T05:00:19;38.87;;;19.70;;
7719;SDS011;3902;49.474;8.616;2022-12-18T05:02:44;38.50;;;19.97;;
7719;SDS011;3902;49.474;8.616;2022-12-18T05:05:10;42.50;;;19.10;;
7719;SDS011;3902;49.474;8.616;2022-12-18T05:07:35;43.33;;;18.97;;
7719;SDS011;3902;49.474;8.616;2022-12-18T05:10:01;37.30;;;20.30;;
7719;SDS011;3902;49.474;8.616;2022-12-18T05:12:27;37.40;;;20.27;;
7719;SDS011;3902;49.474;8.616;2022-12-18T05:14:53;32.77;;;18.60;;
7719;SDS011;3902;49.474;8.616;2022-12-18T05:17:18;44.70;;;20.63;;
7719;SDS011;3902;49.474;8.616;2022-12-18T05:19:44;41.50;;;21.10;;
7719;SDS011;3902;49.474;8.616;2022-12-18T05:22:09;40.03;;;20.10;;
7719;SDS011;3902;49.474;8.616;2022-12-18T05:24:35;42.70;;;19.27;;
7719;SDS011;3902;49.474;8.616;2022-12-18T05:27:00;41.97;;;19.30;;
7719;SDS011;3902;49.474;8.616;2022-12-18T05:29:26;38.93;;;20.00;;
7719;SDS011;3902;49.474;8.616;2022-12-18T05:31:51;42.23;;;19.07;;
7719;SDS011;3902;49.474;8.616;2022-12-18T05:34:17;38.07;;;19.03;;
7719;SDS011;3902;49.474;8.616;2022-12-18T05:36:43;42.13;;;19.50;;
7719;SDS011;3902;49.474;8.616;2022-12-18T05:39:08;38.63;;;18.60;;
7719;SDS011;3902;49.474;8.616;2022-12-18T05:41:34;39.80;;;20.80;;
7719;SDS011;3902;49.474;8.616;2022-12-18T05:43:59;44.40;;;20.77;;
7719;SDS011;3902;49.474;8.616;2022-12-18T05:46:25;33.27;;;18.17;;
7719;SDS011;3902;49.474;8.616;2022-12-18T05:48:51;45.27;;;21.70;;
7719;SDS011;3902;49.474;8.616;2022-12-18T05:51:18;38.20;;;19.33;;
7719;SDS011;3902;49.474;8.616;2022-12-18T05:53:45;42.23;;;19.43;;
7719;SDS011;3902;49.474;8.616;2022-12-18T05:56:16;35.93;;;19.80;;
7719;SDS011;3902;49.474;8.616;2022-12-18T05:58:43;39.33;;;19.10;;
7719;SDS011;3902;49.474;8.616;2022-12-18T06:01:13;36.63;;;18.67;;
7719;SDS011;3902;49.474;8.616;2022-12-18T06:03:41;37.03;;;20.17;;
7719;SDS011;3902;49.474;8.616;2022-12-18T06:06:17;35.30;;;19.37;;
7719;SDS011;3902;49.474;8.616;2022-12-18T06:08:43;38.23;;;19.20;;
7719;SDS011;3902;49.474;8.616;2022-12-18T06:11:09;39.50;;;20.80;;
7719;SDS011;3902;49.474;8.616;2022-12-18T06:13:34;39.40;;;19.47;;
7719;SDS011;3902;49.474;8.616;2022-12-18T06:16:03;40.67;;;18.50;;
7719;SDS011;3902;49.474;8.616;2022-12-18T06:18:30;36.50;;;19.17;;
7719;SDS011;3902;49.474;8.616;2022-12-18T06:20:56;39.97;;;20.33;;
7719;SDS011;3902;49.474;8.616;2022-12-18T06:23:22;42.87;;;19.87;;
7719;SDS011;3902;49.474;8.616;2022-12-18T06:25:48;35.13;;;18.37;;
7719;SDS011;3902;49.474;8.616;2022-12-18T06:28:14;43.10;;;20.40;;
7719;SDS011;3902;49.474;8.616;2022-12-18T06:30:42;38.90;;;20.27;;
7719;SDS011;3902;49.474;8.616;2022-12-18T06:33:08;42.13;;;21.33;;
7719;SDS011;3902;49.474;8.616;2022-12-18T06:35:34;35.37;;;17.87;;
7719;SDS011;3902;49.474;8.616;2022-12-18T06:38:00;32.80;;;18.10;;
7719;SDS011;3902;49.474;8.616;2022-12-18T06:40:26;36.80;;;17.33;;
7719;SDS011;3902;49.474;8.616;2022-12-18T06:42:52;36.30;;;19.27;;
7719;SDS011;3902;49.474;8.616;2022-12-18T06:45:17;32.73;;;16.93;;
7719;SDS011;3902;49.474;8.616;2022-12-18T06:47:43;38.37;;;19.37;;
7719;SDS011;3902;49.474;8.616;2022-12-18T06:50:08;35.20;;;17.23;;
7719;SDS011;3902;49.474;8.616;2022-12-18T06:52:34;35.63;;;17.17;;
7719;SDS011;3902;49.474;8.616;2022-12-18T06:54:59;38.87;;;18.23;;
7719;SDS011;3902;49.474;8.616;2022-12-18T06:57:25;36.10;;;18.00;;
7719;SDS011;3902;49.474;8.616;2022-12-18T06:59:51;35.50;;;19.17;;
7719;SDS011;3902;49.474;8.616;2022-12-18T07:02:17;36.97;;;18.10;;
7719;SDS011;3902;49.474;8.616;2022-12-18T07:04:42;33.90;;;18.40;;
7719;SDS011;3902;49.474;8.616;2022-12-18T07:07:08;44.27;;;18.37;;
7719;SDS011;3902;49.474;8.616;2022-12-18T07:09:33;35.87;;;18.30;;
7719;SDS011;3902;49.474;8.616;2022-12-18T07:11:59;40.63;;;18.67;;
7719;SDS011;3902;49.474;8.616;2022-12-18T07:14:24;33.73;;;18.20;;
7719;SDS011;3902;49.474;8.616;2022-12-18T07:16:50;36.63;;;17.70;;
7719;SDS011;3902;49.474;8.616;2022-12-18T07:19:15;42.60;;;20.10;;
7719;SDS011;3902;49.474;8.616;2022-12-18T07:21:41;42.43;;;20.20;;
7719;SDS011;3902;49.474;8.616;2022-12-18T07:24:06;37.57;;;19.13;;
7719;SDS011;3902;49.474;8.616;2022-12-18T07:26:32;36.70;;;18.77;;
7719;SDS011;3902;49.474;8.616;2022-12-18T07:28:58;40.73;;;20.20;;
7719;SDS011;3902;49.474;8.616;2022-12-18T07:31:23;41.73;;;19.73;;
7719;SDS011;3902;49.474;8.616;2022-12-18T07:33:50;38.87;;;19.57;;
7719;SDS011;3902;49.474;8.616;2022-12-18T07:36:17;35.83;;;18.43;;
7719;SDS011;3902;49.474;8.616;2022-12-18T07:38:42;42.20;;;20.10;;
7719;SDS011;3902;49.474;8.616;2022-12-18T07:41:12;41.10;;;19.17;;
7719;SDS011;3902;49.474;8.616;2022-12-18T07:43:39;48.70;;;21.77;;
7719;SDS011;3902;49.474;8.616;2022-12-18T07:46:06;48.63;;;20.90;;
7719;SDS011;3902;49.474;8.616;2022-12-18T07:48:32;51.17;;;22.40;;
7719;SDS011;3902;49.474;8.616;2022-12-18T07:50:58;39.93;;;20.33;;
7719;SDS011;3902;49.474;8.616;2022-12-18T07:53:25;43.43;;;20.93;;
7719;SDS011;3902;49.474;8.616;2022-12-18T07:55:55;48.83;;;22.40;;
7719;SDS011;3902;49.474;8.616;2022-12-18T07:58:28;49.23;;;21.23;;
7719;SDS011;3902;49.474;8.616;2022-12-18T08:00:54;39.67;;;19.67;;
7719;SDS011;3902;49.474;8.616;2022-12-18T08:03:27;41.23;;;20.70;;
7719;SDS011;3902;49.474;8.616;2022-12-18T08:05:52;45.47;;;21.87;;
7719;SDS011;3902;49.474;8.616;2022-12-18T08:08:22;48.27;;;22.63;;
7719;SDS011;3902;49.474;8.616;2022-12-18T08:10:48;42.80;;;20.60;;
7719;SDS011;3902;49.474;8.616;2022-12-18T08:13:13;42.97;;;19.63;;
7719;SDS011;3902;49.474;8.616;2022-12-18T08:15:39;48.23;;;22.13;;
7719;SDS011;3902;49.474;8.616;2022-12-18T08:18:04;42.63;;;21.73;;
7719;SDS011;3902;49.474;8.616;2022-12-18T08:20:30;42.07;;;21.63;;
7719;SDS011;3902;49.474;8.616;2022-12-18T08:22:55;46.00;;;20.97;;
7719;SDS011;3902;49.474;8.616;2022-12-18T08:25:22;36.93;;;19.00;;
7719;SDS011;3902;49.474;8.616;2022-12-18T08:27:48;43.67;;;20.67;;
7719;SDS011;3902;49.474;8.616;2022-12-18T08:30:14;48.50;;;22.87;;
7719;SDS011;3902;49.474;8.616;2022-12-18T08:32:40;38.00;;;19.43;;
7719;SDS011;3902;49.474;8.616;2022-12-18T08:35:05;39.50;;;19.77;;
7719;SDS011;3902;49.474;8.616;2022-12-18T08:37:32;43.70;;;20.50;;
7719;SDS011;3902;49.474;8.616;2022-12-18T08:39:58;43.00;;;19.73;;
7719;SDS011;3902;49.474;8.616;2022-12-18T08:42:24;43.33;;;21.13;;
7719;SDS011;3902;49.474;8.616;2022-12-18T08:45:08;39.17;;;19.57;;
7719;SDS011;3902;49.474;8.616;2022-12-18T08:47:34;43.70;;;21.20;;
7719;SDS011;3902;49.474;8.616;2022-12-18T08:49:59;47.00;;;22.37;;
7719;SDS011;3902;49.474;8.616;2022-12-18T08:52:25;43.47;;;21.10;;
7719;SDS011;3902;49.474;8.616;2022-12-18T08:54:50;47.00;;;21.60;;
7719;SDS011;3902;49.474;8.616;2022-12-18T08:57:16;47.50;;;23.00;;
7719;SDS011;3902;49.474;8.616;2022-12-18T08:59:41;41.00;;;21.83;;
7719;SDS011;3902;49.474;8.616;2022-12-18T09:02:08;40.73;;;20.33;;
7719;SDS011;3902;49.474;8.616;2022-12-18T09:04:35;42.33;;;22.60;;
7719;SDS011;3902;49.474;8.616;2022-12-18T09:07:01;43.67;;;21.47;;
7719;SDS011;3902;49.474;8.616;2022-12-18T09:09:27;42.40;;;20.40;;
7719;SDS011;3902;49.474;8.616;2022-12-18T09:11:52;40.60;;;21.07;;
7719;SDS011;3902;49.474;8.616;2022-12-18T09:14:18;39.77;;;20.40;;
7719;SDS011;3902;49.474;8.616;2022-12-18T09:16:43;35.03;;;19.23;;
7719;SDS011;3902;49.474;8.616;2022-12-18T09:19:09;37.17;;;19.23;;
7719;SDS011;3902;49.474;8.616;2022-12-18T09:21:38;40.20;;;20.70;;
7719;SDS011;3902;49.474;8.616;2022-12-18T09:24:04;39.63;;;19.80;;
7719;SDS011;3902;49.474;8.616;2022-12-18T09:26:30;40.43;;;20.77;;
7719;SDS011;3902;49.474;8.616;2022-12-18T09:28:56;38.47;;;20.93;;
7719;SDS011;3902;49.474;8.616;2022-12-18T09:31:22;39.17;;;19.57;;
7719;SDS011;3902;49.474;8.616;2022-12-18T09:33:49;41.33;;;20.37;;
7719;SDS011;3902;49.474;8.616;2022-12-18T09:36:16;41.30;;;21.50;;
7719;SDS011;3902;49.474;8.616;2022-12-18T09:38:42;37.57;;;21.80;;
7719;SDS011;3902;49.474;8.616;2022-12-18T09:44:23;36.07;;;20.10;;
7719;SDS011;3902;49.474;8.616;2022-12-18T09:47:11;37.93;;;19.10;;
7719;SDS011;3902;49.474;8.616;2022-12-18T09:49:49;38.07;;;20.00;;
7719;SDS011;3902;49.474;8.616;2022-12-18T09:52:32;36.70;;;19.93;;
7719;SDS011;3902;49.474;8.616;2022-12-18T09:55:08;43.63;;;22.73;;
7719;SDS011;3902;49.474;8.616;2022-12-18T09:57:42;37.30;;;20.30;;
7719;SDS011;3902;49.474;8.616;2022-12-18T10:00:19;42.93;;;29.30;;
7719;SDS011;3902;49.474;8.616;2022-12-18T10:02:53;44.73;;;31.77;;
7719;SDS011;3902;49.474;8.616;2022-12-18T10:05:50;39.70;;;21.70;;
7719;SDS011;3902;49.474;8.616;2022-12-18T10:11:22;45.53;;;23.37;;
7719;SDS011;3902;49.474;8.616;2022-12-18T10:14:00;42.70;;;22.23;;
7719;SDS011;3902;49.474;8.616;2022-12-18T10:16:47;42.20;;;28.80;;
7719;SDS011;3902;49.474;8.616;2022-12-18T10:19:19;45.08;;;30.42;;
7719;SDS011;3902;49.474;8.616;2022-12-18T10:21:59;45.10;;;30.70;;
7719;SDS011;3902;49.474;8.616;2022-12-18T10:24:41;44.17;;;29.13;;
7719;SDS011;3902;49.474;8.616;2022-12-18T10:27:16;49.93;;;33.00;;
7719;SDS011;3902;49.474;8.616;2022-12-18T10:29:43;49.07;;;33.30;;
7719;SDS011;3902;49.474;8.616;2022-12-18T10:32:17;51.43;;;34.20;;
7719;SDS011;3902;49.474;8.616;2022-12-18T10:34:45;48.13;;;32.97;;
7719;SDS011;3902;49.474;8.616;2022-12-18T10:37:15;50.57;;;32.70;;
7719;SDS011;3902;49.474;8.616;2022-12-18T10:39:43;50.20;;;32.63;;
7719;SDS011;3902;49.474;8.616;2022-12-18T10:42:11;45.33;;;30.83;;
7719;SDS011;3902;49.474;8.616;2022-12-18T10:44:44;49.73;;;33.67;;
7719;SDS011;3902;49.474;8.616;2022-12-18T10:47:15;44.50;;;31.00;;
7719;SDS011;3902;49.474;8.616;2022-12-18T10:49:49;47.90;;;32.73;;
7719;SDS011;3902;49.474;8.616;2022-12-18T10:52:23;48.57;;;30.93;;
7719;SDS011;3902;49.474;8.616;2022-12-18T10:55:01;45.40;;;31.73;;
7719;SDS011;3902;49.474;8.616;2022-12-18T10:57:30;44.93;;;32.70;;
7719;SDS011;3902;49.474;8.616;2022-12-18T11:02:47;46.77;;;31.30;;
7719;SDS011;3902;49.474;8.616;2022-12-18T11:05:32;45.80;;;32.30;;
7719;SDS011;3902;49.474;8.616;2022-12-18T11:07:59;53.07;;;33.67;;
7719;SDS011;3902;49.474;8.616;2022-12-18T11:10:44;48.10;;;31.80;;
7719;SDS011;3902;49.474;8.616;2022-12-18T11:13:19;47.13;;;31.97;;
7719;SDS011;3902;49.474;8.616;2022-12-18T11:15:47;49.43;;;33.50;;
7719;SDS011;3902;49.474;8.616;2022-12-18T11:18:17;51.23;;;34.33;;
7719;SDS011;3902;49.474;8.616;2022-12-18T11:20:51;53.73;;;36.03;;
7719;SDS011;3902;49.474;8.616;2022-12-18T11:23:20;47.00;;;32.80;;
7719;SDS011;3902;49.474;8.616;2022-12-18T11:25:52;53.80;;;36.90;;
7719;SDS011;3902;49.474;8.616;2022-12-18T11:28:25;57.03;;;34.50;;
7719;SDS011;3902;49.474;8.616;2022-12-18T11:33:35;49.53;;;35.57;;
7719;SDS011;3902;49.474;8.616;2022-12-18T11:36:03;48.83;;;33.30;;
7719;SDS011;3902;49.474;8.616;2022-12-18T11:38:34;49.13;;;32.37;;
7719;SDS011;3902;49.474;8.616;2022-12-18T11:41:04;43.63;;;30.90;;
7719;SDS011;3902;49.474;8.616;2022-12-18T11:44:24;43.20;;;29.73;;
7719;SDS011;3902;49.474;8.616;2022-12-18T11:47:03;40.37;;;28.97;;
7719;SDS011;3902;49.474;8.616;2022-12-18T11:49:50;46.97;;;31.17;;
7719;SDS011;3902;49.474;8.616;2022-12-18T11:54:52;43.93;;;30.77;;
7719;SDS011;3902;49.474;8.616;2022-12-18T11:57:30;43.70;;;30.37;;
7719;SDS011;3902;49.474;8.616;2022-12-18T12:02:43;43.53;;;28.30;;
7719;SDS011;3902;49.474;8.616;2022-12-18T12:10:41;41.97;;;28.20;;
7719;SDS011;3902;49.474;8.616;2022-12-18T12:13:21;36.67;;;27.50;;
7719;SDS011;3902;49.474;8.616;2022-12-18T12:21:42;43.60;;;30.40;;
7719;SDS011;3902;49.474;8.616;2022-12-18T12:29:42;43.63;;;29.27;;
7719;SDS011;3902;49.474;8.616;2022-12-18T12:32:21;43.87;;;30.47;;
7719;SDS011;3902;49.474;8.616;2022-12-18T12:40:33;45.63;;;32.23;;
7719;SDS011;3902;49.474;8.616;2022-12-18T12:43:22;41.93;;;31.30;;
7719;SDS011;3902;49.474;8.616;2022-12-18T12:46:10;44.03;;;30.20;;
7719;SDS011;3902;49.474;8.616;2022-12-18T12:48:47;43.10;;;30.40;;
7719;SDS011;3902;49.474;8.616;2022-12-18T12:51:29;40.33;;;29.83;;
7719;SDS011;3902;49.474;8.616;2022-12-18T12:53:59;40.73;;;28.83;;
7719;SDS011;3902;49.474;8.616;2022-12-18T13:01:49;45.00;;;33.57;;
7719;SDS011;3902;49.474;8.616;2022-12-18T13:05:38;45.33;;;32.77;;
7719;SDS011;3902;49.474;8.616;2022-12-18T13:07:41;42.60;;;31.73;;
7719;SDS011;3902;49.474;8.616;2022-12-18T13:10:34;41.27;;;31.33;;
7719;SDS011;3902;49.474;8.616;2022-12-18T13:13:14;46.00;;;33.20;;
7719;SDS011;3902;49.474;8.616;2022-12-18T13:18:47;45.43;;;32.00;;
7719;SDS011;3902;49.474;8.616;2022-12-18T13:21:37;53.57;;;38.63;;
7719;SDS011;3902;49.474;8.616;2022-12-18T13:24:23;49.20;;;36.13;;
7719;SDS011;3902;49.474;8.616;2022-12-18T13:26:51;53.10;;;37.10;;
7719;SDS011;3902;49.474;8.616;2022-12-18T13:32:21;48.40;;;34.57;;
7719;SDS011;3902;49.474;8.616;2022-12-18T13:34:48;49.27;;;35.00;;
7719;SDS011;3902;49.474;8.616;2022-12-18T13:37:41;49.40;;;35.17;;
7719;SDS011;3902;49.474;8.616;2022-12-18T13:40:54;50.33;;;35.30;;
7719;SDS011;3902;49.474;8.616;2022-12-18T13:43:13;49.37;;;34.90;;
7719;SDS011;3902;49.474;8.616;2022-12-18T13:46:01;50.13;;;37.20;;
7719;SDS011;3902;49.474;8.616;2022-12-18T13:51:34;46.90;;;33.20;;
7719;SDS011;3902;49.474;8.616;2022-12-18T13:56:42;47.30;;;35.20;;
7719;SDS011;3902;49.474;8.616;2022-12-18T13:59:11;50.17;;;36.80;;
7719;SDS011;3902;49.474;8.616;2022-12-18T14:01:43;44.63;;;33.60;;
7719;SDS011;3902;49.474;8.616;2022-12-18T14:07:11;49.20;;;34.43;;
7719;SDS011;3902;49.474;8.616;2022-12-18T14:09:41;45.07;;;33.60;;
7719;SDS011;3902;49.474;8.616;2022-12-18T14:12:19;48.30;;;33.00;;
7719;SDS011;3902;49.474;8.616;2022-12-18T14:18:21;44.77;;;32.67;;
7719;SDS011;3902;49.474;8.616;2022-12-18T14:20:48;44.30;;;33.97;;
7719;SDS011;3902;49.474;8.616;2022-12-18T14:29:27;48.43;;;33.60;;
7719;SDS011;3902;49.474;8.616;2022-12-18T14:34:34;46.33;;;34.00;;
7719;SDS011;3902;49.474;8.616;2022-12-18T14:36:59;46.00;;;32.40;;
7719;SDS011;3902;49.474;8.616;2022-12-18T14:39:25;45.87;;;32.67;;
7719;SDS011;3902;49.474;8.616;2022-12-18T14:41:51;46.03;;;34.40;;
7719;SDS011;3902;49.474;8.616;2022-12-18T14:44:16;43.97;;;33.10;;
7719;SDS011;3902;49.474;8.616;2022-12-18T14:46:43;45.93;;;32.30;;
7719;SDS011;3902;49.474;8.616;2022-12-18T14:49:30;45.87;;;33.33;;
7719;SDS011;3902;49.474;8.616;2022-12-18T14:52:01;45.33;;;33.13;;
7719;SDS011;3902;49.474;8.616;2022-12-18T14:54:31;41.67;;;30.77;;
7719;SDS011;3902;49.474;8.616;2022-12-18T14:57:04;44.67;;;32.50;;
7719;SDS011;3902;49.474;8.616;2022-12-18T14:59:45;47.73;;;33.40;;
7719;SDS011;3902;49.474;8.616;2022-12-18T15:02:24;52.83;;;36.03;;
7719;SDS011;3902;49.474;8.616;2022-12-18T15:05:02;46.17;;;34.80;;
7719;SDS011;3902;49.474;8.616;2022-12-18T15:07:39;46.70;;;33.30;;
7719;SDS011;3902;49.474;8.616;2022-12-18T15:10:11;45.57;;;33.07;;
7719;SDS011;3902;49.474;8.616;2022-12-18T15:26:04;46.50;;;33.80;;
7719;SDS011;3902;49.474;8.616;2022-12-18T15:28:35;43.97;;;32.63;;
7719;SDS011;3902;49.474;8.616;2022-12-18T15:31:03;45.53;;;32.90;;
7719;SDS011;3902;49.474;8.616;2022-12-18T15:33:42;57.30;;;41.37;;
7719;SDS011;3902;49.474;8.616;2022-12-18T15:36:16;69.23;;;48.87;;
7719;SDS011;3902;49.474;8.616;2022-12-18T15:38:48;75.03;;;51.60;;
7719;SDS011;3902;49.474;8.616;2022-12-18T15:41:16;76.00;;;52.97;;
7719;SDS011;3902;49.474;8.616;2022-12-18T15:43:43;71.10;;;49.63;;
7719;SDS011;3902;49.474;8.616;2022-12-18T15:46:13;71.97;;;50.70;;
7719;SDS011;3902;49.474;8.616;2022-12-18T15:48:53;74.17;;;50.70;;
7719;SDS011;3902;49.474;8.616;2022-12-18T15:53:59;60.60;;;44.33;;
7719;SDS011;3902;49.474;8.616;2022-12-18T15:56:28;85.50;;;58.30;;
7719;SDS011;3902;49.474;8.616;2022-12-18T15:59:14;73.83;;;51.80;;
7719;SDS011;3902;49.474;8.616;2022-12-18T16:01:41;77.53;;;52.37;;
7719;SDS011;3902;49.474;8.616;2022-12-18T16:04:10;72.43;;;49.23;;
7719;SDS011;3902;49.474;8.616;2022-12-18T16:06:38;73.73;;;50.10;;
7719;SDS011;3902;49.474;8.616;2022-12-18T16:09:03;105.87;;;64.53;;
7719;SDS011;3902;49.474;8.616;2022-12-18T16:11:30;99.00;;;60.83;;
7719;SDS011;3902;49.474;8.616;2022-12-18T16:14:11;102.83;;;62.83;;
7719;SDS011;3902;49.474;8.616;2022-12-18T16:16:48;102.97;;;60.27;;
7719;SDS011;3902;49.474;8.616;2022-12-18T16:19:15;95.90;;;58.87;;
7719;SDS011;3902;49.474;8.616;2022-12-18T16:21:42;96.87;;;58.63;;
7719;SDS011;3902;49.474;8.616;2022-12-18T16:24:11;90.87;;;56.73;;
7719;SDS011;3902;49.474;8.616;2022-12-18T16:26:42;84.43;;;53.97;;
7719;SDS011;3902;49.474;8.616;2022-12-18T16:29:08;75.63;;;50.90;;
7719;SDS011;3902;49.474;8.616;2022-12-18T16:31:34;68.00;;;47.40;;
7719;SDS011;3902;49.474;8.616;2022-12-18T16:34:09;63.03;;;44.00;;
7719;SDS011;3902;49.474;8.616;2022-12-18T16:37:05;59.10;;;42.30;;
7719;SDS011;3902;49.474;8.616;2022-12-18T16:39:32;58.10;;;42.10;;
7719;SDS011;3902;49.474;8.616;2022-12-18T16:41:59;55.03;;;39.00;;
7719;SDS011;3902;49.474;8.616;2022-12-18T16:44:26;55.90;;;40.40;;
7719;SDS011;3902;49.474;8.616;2022-12-18T16:46:51;53.87;;;39.60;;
7719;SDS011;3902;49.474;8.616;2022-12-18T16:49:17;49.40;;;36.43;;
7719;SDS011;3902;49.474;8.616;2022-12-18T16:51:45;49.57;;;36.10;;
7719;SDS011;3902;49.474;8.616;2022-12-18T16:54:11;46.90;;;34.77;;
7719;SDS011;3902;49.474;8.616;2022-12-18T16:56:37;46.87;;;35.20;;